Time;durP1;ratioP1;P1;durP2;ratioP2;P2;SDS_P1;SDS_P2;PMS_P1;PMS_P2;Temp;Humidity;BMP_temperature;BMP_pressure;BME280_temperature;BME280_humidity;BME280_pressure;Samples;Min_cycle;Max_cycle;Signal;HPM_P1;HPM_P2
2021/01/30 00:00:44;;;;;;;10.63;4.88;;;9.70;83.60;;;;;;4948492;28;20391;-75
2021/01/30 00:03:12;;;;;;;11.77;4.30;;;9.70;83.60;;;;;;4946680;28;20051;-72
2021/01/30 00:05:38;;;;;;;18.60;5.55;;;9.60;83.50;;;;;;4946761;29;20051;-73
2021/01/30 00:08:06;;;;;;;16.23;5.22;;;9.60;83.50;;;;;;4948057;29;20126;-73
2021/01/30 00:10:32;;;;;;;14.35;5.32;;;9.60;83.50;;;;;;4948476;28;20067;-73
2021/01/30 00:12:58;;;;;;;14.20;5.13;;;9.60;83.50;;;;;;4947557;28;20081;-73
2021/01/30 00:15:26;;;;;;;9.98;4.18;;;9.60;83.50;;;;;;4951186;28;20039;-72
2021/01/30 00:17:54;;;;;;;11.43;4.82;;;9.60;83.50;;;;;;4967536;28;20035;-74
2021/01/30 00:20:26;;;;;;;16.27;5.25;;;9.60;83.50;;;;;;4950008;28;20130;-72
2021/01/30 00:22:53;;;;;;;16.30;4.97;;;9.60;83.50;;;;;;4948545;28;20375;-73
2021/01/30 00:25:22;;;;;;;12.65;3.83;;;9.60;83.50;;;;;;4948156;28;20031;-72
2021/01/30 00:27:48;;;;;;;18.85;5.35;;;9.60;83.50;;;;;;4947581;28;20478;-72
2021/01/30 00:30:18;;;;;;;19.05;5.50;;;9.60;83.60;;;;;;4946071;28;20033;-74
2021/01/30 00:32:43;;;;;;;14.07;5.13;;;9.60;83.60;;;;;;4962508;28;20073;-72
2021/01/30 00:35:11;;;;;;;11.18;4.00;;;9.60;83.60;;;;;;4946581;28;20326;-71
2021/01/30 00:37:37;;;;;;;12.55;5.00;;;9.50;83.40;;;;;;4946217;29;20042;-72
2021/01/30 00:40:05;;;;;;;11.57;4.78;;;9.50;83.40;;;;;;4945719;28;20035;-72
2021/01/30 00:42:31;;;;;;;13.43;5.28;;;9.50;83.40;;;;;;4930627;29;20505;-72
2021/01/30 00:44:57;;;;;;;13.82;5.88;;;9.50;83.40;;;;;;4945719;28;20038;-72
2021/01/30 00:47:23;;;;;;;15.68;5.05;;;9.50;83.40;;;;;;4947027;29;20127;-72
2021/01/30 00:49:50;;;;;;;16.15;4.82;;;9.50;83.40;;;;;;4946057;28;20078;-73
2021/01/30 00:52:20;;;;;;;16.02;4.43;;;9.50;83.40;;;;;;4945902;29;20233;-73
2021/01/30 00:54:56;;;;;;;14.55;5.05;;;9.50;83.50;;;;;;4945475;28;20478;-71
2021/01/30 00:57:22;;;;;;;17.50;4.53;;;9.50;83.40;;;;;;4947491;29;20604;-71
2021/01/30 00:59:48;;;;;;;10.25;3.92;;;9.50;83.40;;;;;;4946782;28;20101;-71
2021/01/30 01:02:14;;;;;;;12.23;3.75;;;9.50;83.40;;;;;;4946035;28;20049;-71
2021/01/30 01:04:45;;;;;;;11.20;4.22;;;9.50;83.50;;;;;;4947406;28;20035;-70
2021/01/30 01:07:13;;;;;;;12.70;4.82;;;9.50;83.50;;;;;;4945469;29;20169;-72
2021/01/30 01:09:41;;;;;;;11.43;5.07;;;9.50;83.40;;;;;;4945220;28;20034;-72
2021/01/30 01:12:07;;;;;;;12.13;4.30;;;9.50;83.40;;;;;;4929656;29;20031;-72
2021/01/30 01:14:33;;;;;;;11.10;5.03;;;9.50;83.40;;;;;;4946745;28;20800;-73
2021/01/30 01:16:59;;;;;;;13.20;3.95;;;9.50;83.40;;;;;;4977755;28;20070;-76
2021/01/30 01:19:25;;;;;;;10.32;3.90;;;9.50;83.50;;;;;;4955891;28;20504;-78
2021/01/30 01:21:53;;;;;;;12.77;4.25;;;9.50;83.50;;;;;;4947144;28;20031;-71
2021/01/30 01:24:20;;;;;;;14.80;4.53;;;9.50;83.50;;;;;;4946744;28;20074;-72
2021/01/30 01:26:47;;;;;;;19.00;4.55;;;9.50;83.50;;;;;;4946631;29;20050;-71
2021/01/30 01:29:15;;;;;;;11.15;4.32;;;9.50;83.50;;;;;;4946517;28;20501;-71
2021/01/30 01:31:41;;;;;;;9.63;4.05;;;9.40;83.30;;;;;;4945174;29;20118;-70
2021/01/30 01:34:07;;;;;;;13.95;4.32;;;9.40;83.40;;;;;;4946219;28;20127;-74
2021/01/30 01:36:33;;;;;;;10.38;4.00;;;9.40;83.30;;;;;;4946513;28;20062;-72
2021/01/30 01:38:59;;;;;;;7.40;3.22;;;9.40;83.40;;;;;;4961160;28;20109;-71
2021/01/30 01:41:25;;;;;;;11.70;4.85;;;9.40;83.40;;;;;;4946392;28;20470;-73
2021/01/30 01:43:51;;;;;;;9.85;3.33;;;9.40;83.40;;;;;;4946466;28;20110;-71
2021/01/30 01:46:18;;;;;;;11.45;4.72;;;9.40;83.40;;;;;;4945547;29;20047;-71
2021/01/30 01:49:00;;;;;;;16.48;4.90;;;9.40;83.40;;;;;;4946330;28;20055;-72
2021/01/30 01:51:37;;;;;;;8.82;4.15;;;9.40;83.40;;;;;;4946650;28;20035;-73
2021/01/30 01:54:08;;;;;;;12.68;4.57;;;9.40;83.40;;;;;;4946181;28;20505;-71
2021/01/30 01:56:37;;;;;;;12.60;4.13;;;9.40;83.40;;;;;;4946281;28;20359;-72
2021/01/30 01:59:13;;;;;;;10.88;3.95;;;9.40;83.40;;;;;;4944554;28;20311;-74
2021/01/30 02:01:40;;;;;;;9.77;3.75;;;9.40;83.40;;;;;;4946038;28;20399;-71
2021/01/30 02:04:14;;;;;;;10.70;4.45;;;9.40;83.40;;;;;;4944779;28;20035;-72
2021/01/30 02:06:46;;;;;;;11.48;4.18;;;9.40;83.40;;;;;;4945566;28;20044;-73
2021/01/30 02:09:20;;;;;;;13.43;3.92;;;9.40;83.40;;;;;;4946135;28;20028;-73
2021/01/30 02:11:58;;;;;;;10.43;3.95;;;9.40;83.40;;;;;;4945101;29;20231;-73
2021/01/30 02:14:24;;;;;;;9.70;3.38;;;9.30;83.30;;;;;;4946369;28;20382;-72
2021/01/30 02:17:04;;;;;;;7.47;3.47;;;9.40;83.40;;;;;;4960477;28;20431;-72
2021/01/30 02:19:41;;;;;;;10.07;3.72;;;9.30;83.20;;;;;;4969749;28;20122;-72
2021/01/30 02:22:32;;;;;;;8.68;3.50;;;9.30;83.30;;;;;;4932164;29;20474;-72
2021/01/30 02:25:16;;;;;;;13.45;4.03;;;9.30;83.30;;;;;;4965168;28;20054;-73
2021/01/30 02:28:13;;;;;;;10.02;4.07;;;9.30;83.30;;;;;;4949724;28;20038;-73
2021/01/30 02:30:57;;;;;;;11.00;3.40;;;9.30;83.30;;;;;;4948618;28;20089;-71
2021/01/30 02:34:12;;;;;;;8.50;3.97;;;9.30;83.30;;;;;;4950396;28;20495;-73
2021/01/30 02:37:05;;;;;;;12.82;3.65;;;9.30;83.30;;;;;;4949744;29;20043;-73
2021/01/30 02:39:58;;;;;;;11.27;3.90;;;9.30;83.30;;;;;;4951516;28;20447;-71
2021/01/30 02:42:42;;;;;;;10.98;3.65;;;9.20;83.10;;;;;;4951425;28;20043;-73
2021/01/30 02:45:11;;;;;;;7.13;3.40;;;9.20;83.20;;;;;;4949879;28;20039;-74
2021/01/30 02:47:41;;;;;;;9.60;3.35;;;9.30;83.40;;;;;;4973584;28;20047;-75
2021/01/30 02:50:15;;;;;;;7.22;3.03;;;9.20;83.70;;;;;;5006013;28;20031;-77
2021/01/30 02:52:44;;;;;;;12.05;3.63;;;9.20;83.20;;;;;;4972810;28;20027;-73
2021/01/30 02:55:14;;;;;;;7.55;3.20;;;9.20;83.20;;;;;;5005144;28;20031;-74
2021/01/30 02:57:41;;;;;;;7.18;3.42;;;9.20;83.20;;;;;;4989115;28;20458;-73
2021/01/30 03:00:11;;;;;;;6.15;3.35;;;9.20;83.30;;;;;;4972681;28;20030;-76
2021/01/30 03:02:38;;;;;;;7.45;3.05;;;9.20;83.30;;;;;;4973665;28;20039;-74
2021/01/30 03:05:07;;;;;;;8.27;3.13;;;9.20;83.30;;;;;;4974056;28;20118;-74
2021/01/30 03:08:04;;;;;;;7.85;2.80;;;9.20;83.30;;;;;;4973891;28;20034;-72
2021/01/30 03:11:04;;;;;;;11.18;3.25;;;9.20;83.30;;;;;;4972396;28;20502;-77
2021/01/30 03:13:45;;;;;;;4.10;2.45;;;9.20;83.30;;;;;;4972242;28;20478;-76
2021/01/30 03:16:16;;;;;;;6.18;2.90;;;9.10;83.10;;;;;;4973270;28;20525;-74
2021/01/30 03:18:54;;;;;;;4.35;2.45;;;9.10;83.20;;;;;;4988537;28;20023;-72
2021/01/30 03:21:22;;;;;;;6.78;3.00;;;9.10;83.20;;;;;;4988702;28;20049;-72
2021/01/30 03:23:48;;;;;;;6.20;2.72;;;9.10;83.20;;;;;;4973958;28;20027;-73
2021/01/30 03:26:17;;;;;;;6.00;2.67;;;9.10;83.30;;;;;;4988496;28;20070;-75
2021/01/30 03:28:44;;;;;;;7.95;3.10;;;9.00;83.10;;;;;;4972005;28;20046;-73
2021/01/30 03:31:10;;;;;;;4.63;2.22;;;9.10;83.30;;;;;;4973288;28;20122;-74
2021/01/30 03:33:36;;;;;;;7.22;2.35;;;9.00;83.60;;;;;;4973479;28;20103;-73
2021/01/30 03:36:03;;;;;;;7.97;2.58;;;9.00;83.10;;;;;;4971798;28;20097;-72
2021/01/30 03:38:29;;;;;;;7.78;2.75;;;9.00;83.10;;;;;;4972029;28;20031;-72
2021/01/30 03:40:55;;;;;;;6.38;2.60;;;9.10;83.30;;;;;;4988466;28;20035;-71
2021/01/30 03:43:21;;;;;;;6.13;2.03;;;9.00;83.20;;;;;;4971885;28;20027;-74
2021/01/30 03:45:47;;;;;;;6.70;2.33;;;9.00;83.20;;;;;;4971761;28;20073;-73
2021/01/30 03:48:13;;;;;;;5.70;2.90;;;9.00;83.20;;;;;;4971737;28;20047;-72
2021/01/30 03:50:39;;;;;;;5.18;2.40;;;9.00;83.20;;;;;;4972959;28;20173;-71
2021/01/30 03:53:07;;;;;;;6.60;2.13;;;9.00;83.20;;;;;;4972888;28;20117;-72
2021/01/30 03:55:34;;;;;;;4.93;1.98;;;9.00;83.20;;;;;;4973033;28;20451;-71
2021/01/30 03:58:00;;;;;;;8.05;2.22;;;9.00;83.20;;;;;;4972626;28;20033;-72
2021/01/30 04:00:27;;;;;;;3.20;2.35;;;9.00;83.20;;;;;;4973074;28;20396;-72
2021/01/30 04:02:53;;;;;;;5.00;2.60;;;9.00;83.20;;;;;;4973266;28;20034;-72
2021/01/30 04:05:22;;;;;;;5.32;2.08;;;9.00;83.20;;;;;;4987260;28;20035;-76
2021/01/30 04:07:49;;;;;;;4.32;2.20;;;8.90;83.00;;;;;;4971438;28;20045;-71
2021/01/30 04:10:27;;;;;;;5.22;2.33;;;8.90;83.10;;;;;;4987347;28;20034;-71
2021/01/30 04:12:53;;;;;;;3.72;2.08;;;8.90;83.10;;;;;;4987568;28;20093;-72
2021/01/30 04:15:22;;;;;;;3.72;1.67;;;8.90;83.10;;;;;;4969136;28;20115;-71
2021/01/30 04:17:49;;;;;;;4.50;1.88;;;8.90;83.10;;;;;;4951967;28;20030;-72
2021/01/30 04:20:16;;;;;;;4.72;2.15;;;8.90;83.20;;;;;;4953278;28;20073;-72
2021/01/30 04:22:42;;;;;;;3.97;2.30;;;8.90;83.20;;;;;;4967434;28;20054;-72
2021/01/30 04:25:09;;;;;;;5.00;2.60;;;8.90;83.20;;;;;;4967624;28;20066;-72
2021/01/30 04:27:35;;;;;;;8.57;2.75;;;8.90;83.20;;;;;;4953029;28;20054;-70
2021/01/30 04:30:01;;;;;;;7.57;2.10;;;8.80;83.10;;;;;;4951591;28;20031;-72
2021/01/30 04:32:27;;;;;;;3.80;1.92;;;8.90;83.20;;;;;;4951621;28;20137;-72
2021/01/30 04:34:53;;;;;;;2.22;1.48;;;8.80;83.10;;;;;;4951679;28;20209;-75
2021/01/30 04:37:18;;;;;;;5.20;1.95;;;8.80;83.10;;;;;;4951135;28;20043;-70
2021/01/30 04:39:44;;;;;;;2.70;1.83;;;8.90;83.20;;;;;;4951328;28;20058;-70
2021/01/30 04:42:16;;;;;;;4.75;1.77;;;8.80;83.10;;;;;;4951621;28;20035;-73
2021/01/30 04:45:07;;;;;;;4.57;1.67;;;8.80;83.10;;;;;;4950855;28;20509;-71
2021/01/30 04:48:01;;;;;;;5.07;2.05;;;8.80;83.10;;;;;;4967285;28;20043;-71
2021/01/30 04:50:33;;;;;;;3.50;1.83;;;8.80;83.00;;;;;;4952330;28;20479;-73
2021/01/30 04:53:35;;;;;;;4.13;2.10;;;8.80;83.00;;;;;;4952916;28;20027;-71
2021/01/30 04:56:16;;;;;;;2.38;1.55;;;8.80;83.10;;;;;;4951109;28;20067;-70
2021/01/30 04:58:56;;;;;;;3.63;1.60;;;8.80;83.10;;;;;;4952636;28;20031;-71
2021/01/30 05:01:35;;;;;;;4.07;1.45;;;8.80;83.10;;;;;;4952376;28;20035;-71
2021/01/30 05:04:10;;;;;;;3.67;2.33;;;8.80;83.20;;;;;;4952311;28;20035;-72
2021/01/30 05:07:09;;;;;;;2.88;1.50;;;8.70;83.00;;;;;;4966524;28;20054;-73
2021/01/30 05:09:57;;;;;;;3.00;1.30;;;8.70;83.00;;;;;;4951600;28;20031;-74
2021/01/30 05:12:57;;;;;;;4.85;1.55;;;8.70;83.10;;;;;;4950752;28;20095;-73
2021/01/30 05:15:32;;;;;;;2.42;1.50;;;8.70;83.10;;;;;;4954307;28;20245;-74
2021/01/30 05:18:27;;;;;;;2.67;1.40;;;8.70;83.10;;;;;;4971372;28;20044;-72
2021/01/30 05:21:11;;;;;;;2.08;1.40;;;8.70;83.10;;;;;;4971412;28;20466;-72
2021/01/30 05:23:38;;;;;;;5.50;1.40;;;8.70;83.10;;;;;;4971863;28;20042;-72
2021/01/30 05:26:17;;;;;;;1.52;1.17;;;8.60;82.90;;;;;;4971337;28;20057;-70
2021/01/30 05:28:51;;;;;;;2.78;1.48;;;8.70;83.10;;;;;;4985818;28;20088;-72
2021/01/30 05:31:17;;;;;;;;;;;8.60;83.00;;;;;;4970067;28;20042;-73
2021/01/30 05:33:46;;;;;;;2.45;1.35;;;8.70;83.10;;;;;;4970763;28;19910;-73
2021/01/30 05:36:17;;;;;;;1.52;1.25;;;8.60;82.90;;;;;;4971043;28;20034;-71
2021/01/30 05:38:56;;;;;;;1.60;1.40;;;8.70;83.10;;;;;;4985162;28;20042;-71
2021/01/30 05:41:51;;;;;;;2.63;1.35;;;8.60;82.90;;;;;;4970000;28;20030;-73
2021/01/30 05:44:24;;;;;;;1.85;1.35;;;8.60;83.10;;;;;;4969677;28;20447;-73
2021/01/30 05:46:52;;;;;;;2.63;1.33;;;8.60;83.00;;;;;;4970373;28;20121;-74
2021/01/30 05:49:24;;;;;;;1.30;1.15;;;8.60;83.00;;;;;;4929047;28;20035;-73
2021/01/30 05:51:50;;;;;;;1.65;1.30;;;8.60;83.10;;;;;;4928981;29;20368;-72
2021/01/30 05:54:16;;;;;;;9.57;1.30;;;8.60;83.10;;;;;;4927882;29;20028;-74
2021/01/30 05:56:44;;;;;;;1.95;1.23;;;8.60;83.10;;;;;;4928292;29;20043;-71
2021/01/30 05:59:23;;;;;;;1.27;1.17;;;8.50;83.00;;;;;;4942522;28;20117;-72
2021/01/30 06:01:49;;;;;;;2.42;1.25;;;8.60;83.20;;;;;;4947808;29;20061;-71
2021/01/30 06:04:26;;;;;;;1.23;1.08;;;8.60;83.20;;;;;;4945274;29;20031;-73
2021/01/30 06:06:55;;;;;;;1.80;1.50;;;8.50;83.00;;;;;;4944922;29;20153;-71
2021/01/30 06:09:29;;;;;;;2.08;1.50;;;8.50;83.00;;;;;;4946341;28;20131;-71
2021/01/30 06:11:55;;;;;;;2.28;1.30;;;8.50;83.00;;;;;;4946763;28;20217;-74
2021/01/30 06:14:33;;;;;;;1.30;1.20;;;8.50;83.00;;;;;;4946651;28;20035;-72
2021/01/30 06:17:00;;;;;;;2.33;1.30;;;8.50;83.10;;;;;;4961332;28;20030;-73
2021/01/30 06:19:30;;;;;;;2.42;1.05;;;8.50;83.10;;;;;;4949704;28;20031;-71
2021/01/30 06:22:18;;;;;;;4.63;1.60;;;8.50;83.10;;;;;;4946712;28;20031;-71
2021/01/30 06:24:45;;;;;;;0.90;0.90;;;8.50;83.10;;;;;;4946777;28;20032;-71
2021/01/30 06:27:41;;;;;;;1.75;1.33;;;8.50;83.10;;;;;;4946185;29;20370;-70
2021/01/30 06:30:12;;;;;;;2.22;1.30;;;8.50;83.20;;;;;;4947379;28;20047;-72
2021/01/30 06:32:43;;;;;;;1.58;1.23;;;8.50;83.10;;;;;;4946310;28;20035;-71
2021/01/30 06:35:18;;;;;;;1.08;1.05;;;8.50;83.20;;;;;;4960630;28;20533;-71
2021/01/30 06:38:00;;;;;;;1.60;1.48;;;8.50;83.20;;;;;;4944645;28;20070;-75
2021/01/30 06:40:36;;;;;;;1.08;1.02;;;8.40;83.00;;;;;;4945042;28;20031;-71
2021/01/30 06:43:25;;;;;;;2.28;1.17;;;8.50;83.20;;;;;;4945985;28;20176;-72
2021/01/30 06:45:53;;;;;;;2.30;1.23;;;8.50;83.20;;;;;;4917906;29;20098;-74
2021/01/30 06:48:52;;;;;;;1.25;0.90;;;8.40;83.00;;;;;;4945674;28;20164;-73
2021/01/30 06:51:26;;;;;;;4.30;1.30;;;8.40;83.10;;;;;;4953978;28;20039;-69
2021/01/30 06:53:53;;;;;;;2.03;1.23;;;8.40;83.10;;;;;;4943177;28;20166;-72
2021/01/30 06:56:32;;;;;;;3.25;1.40;;;8.40;83.10;;;;;;4944191;29;20465;-72
2021/01/30 06:59:04;;;;;;;1.90;1.35;;;8.40;83.10;;;;;;4928199;29;20032;-71
2021/01/30 07:01:46;;;;;;;2.45;1.60;;;8.40;83.20;;;;;;4945776;28;20023;-72
2021/01/30 07:04:15;;;;;;;3.17;1.80;;;8.40;83.20;;;;;;4943967;28;20054;-72
2021/01/30 07:06:53;;;;;;;2.13;1.85;;;8.50;83.30;;;;;;4960235;28;20094;-72
2021/01/30 07:09:37;;;;;;;1.80;1.42;;;8.50;83.30;;;;;;4947942;28;20039;-70
2021/01/30 07:12:26;;;;;;;3.35;2.13;;;8.50;83.30;;;;;;4947786;28;20046;-71
2021/01/30 07:15:26;;;;;;;3.38;2.65;;;8.50;83.30;;;;;;4947729;29;20545;-70
2021/01/30 07:18:26;;;;;;;4.70;2.55;;;8.60;83.50;;;;;;4935630;28;20117;-70
2021/01/30 07:20:57;;;;;;;2.30;1.90;;;8.60;83.50;;;;;;4966031;28;20031;-71
2021/01/30 07:23:50;;;;;;;4.38;2.65;;;8.60;83.50;;;;;;4955784;28;20035;-72
2021/01/30 07:26:33;;;;;;;8.50;2.38;;;8.60;83.50;;;;;;4948300;28;20138;-71
2021/01/30 07:29:05;;;;;;;12.75;3.25;;;8.60;83.50;;;;;;4964005;28;20023;-69
2021/01/30 07:31:41;;;;;;;2.83;2.05;;;8.70;83.70;;;;;;4946896;29;20031;-71
2021/01/30 07:34:41;;;;;;;4.25;1.95;;;8.70;83.70;;;;;;4963576;28;20023;-70
2021/01/30 07:37:18;;;;;;;6.28;2.03;;;8.70;83.80;;;;;;4964150;28;20135;-70
2021/01/30 07:39:56;;;;;;;2.90;1.70;;;8.80;84.00;;;;;;4947136;28;20027;-70
2021/01/30 07:42:48;;;;;;;3.58;1.80;;;8.80;84.00;;;;;;4947775;28;20043;-70
2021/01/30 07:45:36;;;;;;;4.38;2.15;;;8.80;84.00;;;;;;4948917;28;20031;-70
2021/01/30 07:48:15;;;;;;;5.78;2.30;;;8.80;84.10;;;;;;4948394;28;20093;-70
2021/01/30 07:50:47;;;;;;;2.17;1.98;;;8.80;84.10;;;;;;4931333;29;20031;-70
2021/01/30 07:53:19;;;;;;;4.28;2.40;;;8.90;84.30;;;;;;4947026;28;20511;-70
2021/01/30 07:56:00;;;;;;;2.45;1.70;;;8.90;84.30;;;;;;4948166;28;20446;-72
2021/01/30 07:58:48;;;;;;;3.10;1.70;;;8.90;84.50;;;;;;4946629;28;20122;-71
2021/01/30 08:01:42;;;;;;;3.33;2.03;;;8.90;84.50;;;;;;4948256;29;20027;-70
2021/01/30 08:04:27;;;;;;;;;;;8.90;84.50;;;;;;4949388;28;20047;-71
2021/01/30 08:07:18;;;;;;;2.15;1.80;;;8.90;84.40;;;;;;4962779;28;19923;-70
2021/01/30 08:10:21;;;;;;;1.77;1.55;;;9.00;84.40;;;;;;4946737;28;20201;-71
2021/01/30 08:13:28;;;;;;;1.70;1.60;;;9.00;84.40;;;;;;4963615;28;20467;-71
2021/01/30 08:16:22;;;;;;;3.90;1.88;;;8.90;84.20;;;;;;4954334;28;20038;-71
2021/01/30 08:18:50;;;;;;;5.43;1.80;;;8.90;84.80;;;;;;4955067;28;20023;-71
2021/01/30 08:21:33;;;;;;;4.25;1.58;;;8.90;84.30;;;;;;4946791;28;20082;-70
2021/01/30 08:24:19;;;;;;;2.42;2.03;;;8.90;84.40;;;;;;4946998;28;20035;-71
2021/01/30 08:27:03;;;;;;;3.03;1.67;;;8.90;84.50;;;;;;4946458;29;20238;-71
2021/01/30 08:29:32;;;;;;;;;;;8.80;84.30;;;;;;4963021;28;20333;-71
2021/01/30 08:32:19;;;;;;;3.22;1.45;;;8.90;84.60;;;;;;4948152;28;20362;-71
2021/01/30 08:34:45;;;;;;;2.00;1.80;;;8.90;84.50;;;;;;4947598;28;20138;-70
2021/01/30 08:37:11;;;;;;;2.05;1.60;;;8.80;84.30;;;;;;4947750;28;20027;-74
2021/01/30 08:40:10;;;;;;;3.47;1.45;;;8.90;84.60;;;;;;4948114;28;20054;-72
2021/01/30 08:42:56;;;;;;;1.48;1.33;;;8.90;84.70;;;;;;4946936;28;20113;-71
2021/01/30 08:45:33;;;;;;;4.40;1.52;;;8.90;84.70;;;;;;4946101;28;20027;-71
2021/01/30 08:48:16;;;;;;;2.08;1.85;;;8.90;84.70;;;;;;4947723;28;20067;-75
2021/01/30 08:50:46;;;;;;;4.38;1.55;;;9.00;84.80;;;;;;4946510;29;20027;-72
2021/01/30 08:53:20;;;;;;;2.05;1.30;;;9.00;84.80;;;;;;4947285;28;20035;-70
2021/01/30 08:55:46;;;;;;;1.38;1.23;;;9.00;84.80;;;;;;4948216;28;20356;-72
2021/01/30 08:58:37;;;;;;;1.95;1.40;;;9.00;84.80;;;;;;4947256;28;20039;-71
2021/01/30 09:01:26;;;;;;;2.80;1.70;;;9.00;84.80;;;;;;4946100;29;20043;-73
2021/01/30 09:04:00;;;;;;;1.75;1.23;;;9.00;84.80;;;;;;4943303;28;20442;-73
2021/01/30 09:06:39;;;;;;;2.28;1.70;;;9.00;84.70;;;;;;4961895;28;20043;-73
2021/01/30 09:09:06;;;;;;;1.63;1.52;;;9.00;84.70;;;;;;4946689;28;20034;-73
2021/01/30 09:11:48;;;;;;;2.33;1.30;;;9.10;84.90;;;;;;4946093;29;20522;-74
2021/01/30 09:14:14;;;;;;;1.80;1.40;;;9.10;84.90;;;;;;4947075;28;20043;-74
2021/01/30 09:17:12;;;;;;;2.40;1.48;;;9.00;84.70;;;;;;4958420;28;20038;-72
2021/01/30 09:20:03;;;;;;;2.55;1.35;;;9.10;85.00;;;;;;4947660;28;20490;-73
2021/01/30 09:22:39;;;;;;;3.40;1.42;;;9.10;84.90;;;;;;4945447;28;20028;-74
2021/01/30 09:25:21;;;;;;;2.20;1.58;;;9.10;84.90;;;;;;4947182;28;20070;-75
2021/01/30 09:28:01;;;;;;;2.45;1.75;;;9.20;85.00;;;;;;4977857;28;20386;-73
2021/01/30 09:30:53;;;;;;;1.38;1.27;;;9.20;85.00;;;;;;4946786;28;20489;-75
2021/01/30 09:33:30;;;;;;;2.13;1.42;;;9.20;85.00;;;;;;4946801;28;20463;-72
2021/01/30 09:36:12;;;;;;;2.17;1.65;;;9.20;85.00;;;;;;4945676;29;20031;-73
2021/01/30 09:38:49;;;;;;;1.23;1.10;;;9.30;85.20;;;;;;4945937;28;20063;-74
2021/01/30 09:41:23;;;;;;;2.50;1.20;;;9.30;85.20;;;;;;4945556;28;20431;-73
2021/01/30 09:44:03;;;;;;;2.38;1.33;;;9.40;85.20;;;;;;4944921;28;20035;-72
2021/01/30 09:46:34;;;;;;;1.23;1.00;;;9.40;85.20;;;;;;4946933;28;20130;-74
2021/01/30 09:49:08;;;;;;;1.27;1.17;;;9.40;85.00;;;;;;4946539;28;20050;-71
2021/01/30 09:51:39;;;;;;;2.08;1.55;;;9.40;85.00;;;;;;4946597;29;20049;-74
2021/01/30 09:54:06;;;;;;;1.15;1.08;;;9.40;85.00;;;;;;4961123;28;20436;-73
2021/01/30 09:56:36;;;;;;;1.35;1.13;;;9.40;85.00;;;;;;4946101;29;20039;-73
2021/01/30 09:59:05;;;;;;;1.10;1.05;;;9.40;85.00;;;;;;4961118;28;20034;-73
2021/01/30 10:01:45;;;;;;;5.20;1.85;;;9.50;85.20;;;;;;4960822;28;20035;-73
2021/01/30 10:04:17;;;;;;;1.15;1.10;;;9.50;85.70;;;;;;4946415;28;20039;-73
2021/01/30 10:06:45;;;;;;;1.60;1.30;;;9.60;85.30;;;;;;4946308;28;20532;-70
2021/01/30 10:09:29;;;;;;;1.83;1.33;;;9.60;85.20;;;;;;4946316;28;20027;-72
2021/01/30 10:11:58;;;;;;;2.63;1.63;;;9.60;85.10;;;;;;4946757;29;20046;-71
2021/01/30 10:14:26;;;;;;;3.28;1.42;;;9.60;85.10;;;;;;4928872;29;20031;-73
2021/01/30 10:17:01;;;;;;;1.13;1.10;;;9.60;85.10;;;;;;4960611;28;20173;-73
2021/01/30 10:19:30;;;;;;;1.40;1.10;;;9.70;85.30;;;;;;4965842;28;20064;-74
2021/01/30 10:21:56;;;;;;;1.67;1.52;;;9.70;85.30;;;;;;4946426;29;20027;-72
2021/01/30 10:24:30;;;;;;;4.43;1.15;;;9.70;85.20;;;;;;4944916;28;20093;-73
2021/01/30 10:27:20;;;;;;;1.27;1.08;;;9.70;85.20;;;;;;4961496;28;20125;-72
2021/01/30 10:29:47;;;;;;;1.40;1.30;;;9.70;85.30;;;;;;4945098;28;20545;-71
2021/01/30 10:32:34;;;;;;;1.67;1.30;;;9.80;85.50;;;;;;4944924;28;20074;-72
2021/01/30 10:35:05;;;;;;;1.77;1.30;;;9.80;85.50;;;;;;4944705;29;20047;-72
2021/01/30 10:37:51;;;;;;;1.48;1.38;;;9.80;85.50;;;;;;4945234;28;20102;-72
2021/01/30 10:40:32;;;;;;;1.30;1.20;;;9.90;85.70;;;;;;4946610;28;20107;-71
2021/01/30 10:43:11;;;;;;;2.05;1.70;;;9.90;85.50;;;;;;4963670;28;20078;-71
2021/01/30 10:45:42;;;;;;;6.03;1.75;;;10.00;85.70;;;;;;4949251;28;20049;-71
2021/01/30 10:48:11;;;;;;;2.20;1.40;;;10.10;85.80;;;;;;4948075;28;20367;-73
2021/01/30 10:50:48;;;;;;;2.00;1.20;;;10.10;85.70;;;;;;4948503;29;20031;-72
2021/01/30 10:53:35;;;;;;;1.80;1.20;;;10.20;85.80;;;;;;4948155;28;20039;-72
2021/01/30 10:56:22;;;;;;;4.43;1.63;;;10.30;86.20;;;;;;4945199;28;20040;-71
2021/01/30 10:58:53;;;;;;;1.63;1.30;;;10.40;86.20;;;;;;4948402;28;20118;-73
2021/01/30 11:01:19;;;;;;;3.78;1.42;;;10.50;86.20;;;;;;4948271;28;20050;-72
2021/01/30 11:03:53;;;;;;;2.20;1.60;;;10.50;86.00;;;;;;4949519;28;20118;-71
2021/01/30 11:06:19;;;;;;;;;;;10.60;86.20;;;;;;4948928;28;20051;-71
2021/01/30 11:08:45;;;;;;;1.50;1.13;;;10.60;86.10;;;;;;4948025;28;19937;-72
2021/01/30 11:11:21;;;;;;;1.45;1.30;;;10.70;86.10;;;;;;4948976;28;20154;-72
2021/01/30 11:13:47;;;;;;;1.45;1.35;;;10.80;86.20;;;;;;4949327;28;20038;-72
2021/01/30 11:16:32;;;;;;;1.40;1.30;;;10.80;86.20;;;;;;4958828;28;20030;-73
2021/01/30 11:18:58;;;;;;;2.78;1.13;;;10.80;86.10;;;;;;4956917;28;20038;-72
2021/01/30 11:21:37;;;;;;;1.50;1.40;;;10.80;86.00;;;;;;4947052;28;20035;-71
2021/01/30 11:24:47;;;;;;;1.25;1.15;;;10.90;86.20;;;;;;4947322;28;20139;-73
2021/01/30 11:27:34;;;;;;;1.85;1.40;;;11.00;86.50;;;;;;4946905;29;20479;-72
2021/01/30 11:30:16;;;;;;;2.17;1.45;;;11.10;86.60;;;;;;4945922;28;20067;-72
2021/01/30 11:33:05;;;;;;;3.72;1.60;;;11.10;86.40;;;;;;4958228;28;20042;-72
2021/01/30 11:35:34;;;;;;;6.40;2.75;;;11.20;86.40;;;;;;4948376;28;20519;-73
2021/01/30 11:38:17;;;;;;;8.70;3.05;;;11.30;86.40;;;;;;4949446;28;20040;-74
2021/01/30 11:40:44;;;;;;;11.23;5.03;;;11.30;86.20;;;;;;4949166;29;20043;-72
2021/01/30 11:43:11;;;;;;;7.90;4.43;;;11.30;86.10;;;;;;4955850;28;20468;-74
2021/01/30 11:45:37;;;;;;;9.45;4.35;;;11.30;86.10;;;;;;4967362;28;20042;-73
2021/01/30 11:48:04;;;;;;;8.68;3.58;;;11.30;86.10;;;;;;4950883;28;20078;-75
2021/01/30 11:50:30;;;;;;;13.52;4.63;;;11.30;86.20;;;;;;4928623;29;20090;-74
2021/01/30 11:53:20;;;;;;;12.82;3.90;;;11.30;86.20;;;;;;4936214;28;20036;-75
2021/01/30 11:55:46;;;;;;;8.10;4.07;;;11.40;86.30;;;;;;4963423;28;20034;-74
2021/01/30 11:58:14;;;;;;;6.25;3.42;;;11.40;86.20;;;;;;4948145;28;20024;-75
2021/01/30 12:00:40;;;;;;;9.90;3.75;;;11.40;86.10;;;;;;4947907;29;20059;-74
2021/01/30 12:03:09;;;;;;;8.27;3.97;;;11.30;85.80;;;;;;4948702;28;20039;-74
2021/01/30 12:05:35;;;;;;;8.27;3.90;;;11.30;85.80;;;;;;4948775;29;20039;-75
2021/01/30 12:08:01;;;;;;;10.77;4.10;;;11.30;85.80;;;;;;4947541;28;20050;-75
2021/01/30 12:10:27;;;;;;;5.38;3.45;;;11.30;85.80;;;;;;4947461;28;20177;-75
2021/01/30 12:12:53;;;;;;;7.45;3.80;;;11.30;85.70;;;;;;4948261;28;20101;-74
2021/01/30 12:15:19;;;;;;;7.75;3.92;;;11.30;85.70;;;;;;4950988;28;20076;-75
2021/01/30 12:17:47;;;;;;;7.57;3.75;;;11.30;85.60;;;;;;4982559;28;20057;-75
2021/01/30 12:20:19;;;;;;;6.57;3.72;;;11.30;85.60;;;;;;4947459;28;20395;-74
2021/01/30 12:22:46;;;;;;;8.65;3.83;;;11.30;85.50;;;;;;4948285;28;20542;-74
2021/01/30 12:25:12;;;;;;;6.05;3.38;;;11.30;85.50;;;;;;4963340;28;20059;-74
2021/01/30 12:27:43;;;;;;;9.10;3.22;;;11.30;85.40;;;;;;4946833;29;20043;-74
2021/01/30 12:30:10;;;;;;;22.80;10.75;;;11.30;85.40;;;;;;4948219;28;20042;-78
2021/01/30 12:32:36;;;;;;;42.72;16.27;;;11.30;85.40;;;;;;4946995;28;20114;-78
2021/01/30 12:35:03;;;;;;;40.92;17.05;;;11.30;85.70;;;;;;4941344;28;20225;-75
2021/01/30 12:37:29;;;;;;;34.35;16.80;;;11.40;86.20;;;;;;4943654;28;20032;-89
2021/01/30 12:39:55;;;;;;;29.65;16.00;;;11.50;86.40;;;;;;4947718;28;20042;-75
2021/01/30 12:42:21;;;;;;;34.50;15.38;;;11.60;86.60;;;;;;4946588;28;20031;-75
2021/01/30 12:44:47;;;;;;;41.70;15.15;;;11.80;87.30;;;;;;4946979;29;20032;-74
2021/01/30 12:47:28;;;;;;;29.55;13.23;;;11.90;86.70;;;;;;4948186;28;20086;-73
2021/01/30 12:49:54;;;;;;;33.85;13.30;;;11.90;86.60;;;;;;4930251;29;20031;-75
2021/01/30 12:52:20;;;;;;;29.17;11.65;;;11.90;86.40;;;;;;4944774;28;20034;-75
2021/01/30 12:54:46;;;;;;;33.95;13.68;;;12.00;86.50;;;;;;4934859;28;20114;-73
2021/01/30 12:57:12;;;;;;;20.15;10.20;;;11.90;86.20;;;;;;4951594;28;20039;-74
2021/01/30 12:59:38;;;;;;;25.75;10.30;;;11.90;86.10;;;;;;4958464;28;20053;-74
2021/01/30 13:02:04;;;;;;;26.00;11.02;;;11.80;86.50;;;;;;4951628;28;20107;-73
2021/01/30 13:04:31;;;;;;;21.80;8.90;;;11.80;86.00;;;;;;4944177;28;20118;-77
2021/01/30 13:06:57;;;;;;;13.80;6.57;;;11.70;85.80;;;;;;4949530;28;20083;-74
2021/01/30 13:09:23;;;;;;;11.02;6.32;;;11.70;85.90;;;;;;4939119;28;20032;-74
2021/01/30 13:11:49;;;;;;;14.88;6.15;;;11.70;86.10;;;;;;4932890;29;20118;-73
2021/01/30 13:14:16;;;;;;;13.07;6.15;;;11.70;86.20;;;;;;4942838;28;20027;-74
2021/01/30 13:16:43;;;;;;;11.02;5.57;;;11.70;86.10;;;;;;4939767;28;20126;-73
2021/01/30 13:19:11;;;;;;;10.63;5.13;;;11.70;86.00;;;;;;4938447;28;20062;-76
2021/01/30 13:21:37;;;;;;;12.75;5.15;;;11.70;85.90;;;;;;4946641;29;20071;-77
2021/01/30 13:24:04;;;;;;;11.77;5.05;;;11.80;86.00;;;;;;4944641;28;20163;-75
2021/01/30 13:26:30;;;;;;;10.07;4.63;;;11.80;85.90;;;;;;4946065;28;20042;-75
2021/01/30 13:28:56;;;;;;;10.30;5.10;;;11.80;85.80;;;;;;4946821;28;20027;-74